Terminal Aerodrome Forecast
Issued by NWS Charleston, WV

Current Version | Previous Version | Graphics & Text | Print | Product List | Glossary On
Versions: 1 2 3 4 5 6 7 8 9 10 11 12 13 14 15 16 17 18 19 20 21 22 23
000
FTUS41 KRLX 280800 AAA
TAFCRW
TAF AMD
KCRW 280819Z 2808/2906 28006KT 3SM BR OVC015
      TEMPO 2808/2810 2SM -SN
     FM281000 28006KT 6SM BR OVC015
     FM281200 28004KT P6SM BKN025
     FM281600 28004KT P6SM BKN035
     FM290000 00000KT P6SM BKN080=

USA.gov is the U.S. government's official web portal to all federal, state and local government web resources and services.